Black Creek, New York
Current Conditions -  °F | °C
As of 6:15 AM on Wednesday 26 Nov 2014 (Local Time) from KOLE Reporting Station
Overcast Overcast  
Wind Chill: 22°   Ceiling: 1900
Heat Index: 28°   Visibility: 10mi
Dew Point: 28°   Wind: 6mph
Humidity: 100%   Direction: 60°ENE
Pressure: 30.09"   Gusts: NA
Location:  42.28°N, 78.23°W
Report Text: KOLE 261115Z AUTO 06005KT 10SM OVC019 M02/M02 A3009 RMK AO2
Loading
Personal Weather Stations






























Interactive Weather Map New forecast layout! Learn more

10-Day Weather Forecast

Advertisements
Track Severe Weather on mobile